createdAt,value
2023-01-29T00:00:22.441Z,34.30
2023-01-29T00:02:49.216Z,38.00
2023-01-29T00:05:27.977Z,40.10
2023-01-29T00:07:56.566Z,39.90
2023-01-29T00:10:26.527Z,38.80
2023-01-29T00:12:53.090Z,36.70
2023-01-29T00:15:20.477Z,35.67
2023-01-29T00:17:46.955Z,36.60
2023-01-29T00:20:13.636Z,35.33
2023-01-29T00:22:40.738Z,31.87
2023-01-29T00:25:07.998Z,32.57
2023-01-29T00:27:34.454Z,34.57
2023-01-29T00:30:12.685Z,32.47
2023-01-29T00:32:42.335Z,35.83
2023-01-29T00:35:09.565Z,34.60
2023-01-29T00:37:36.348Z,32.70
2023-01-29T00:40:03.530Z,33.50
2023-01-29T00:42:48.566Z,31.40
2023-01-29T00:45:15.184Z,33.70
2023-01-29T00:47:41.626Z,32.67
2023-01-29T00:50:11.404Z,33.47
2023-01-29T00:52:38.562Z,33.10
2023-01-29T00:55:05.858Z,34.13
2023-01-29T00:57:33.734Z,33.03
2023-01-29T01:00:00.495Z,32.60
2023-01-29T01:02:46.008Z,31.50
2023-01-29T01:05:17.851Z,31.27
2023-01-29T01:07:46.577Z,33.17
2023-01-29T01:10:21.913Z,31.43
2023-01-29T01:12:59.451Z,31.30
2023-01-29T01:15:28.821Z,31.50
2023-01-29T01:17:57.913Z,32.50
2023-01-29T01:20:28.425Z,31.00
2023-01-29T01:22:54.909Z,33.20
2023-01-29T01:25:26.713Z,32.87
2023-01-29T01:27:54.404Z,31.43
2023-01-29T01:30:22.387Z,32.40
2023-01-29T01:32:48.857Z,32.87
2023-01-29T01:35:15.464Z,33.60
2023-01-29T01:37:42.250Z,33.33
2023-01-29T01:40:18.223Z,33.80
2023-01-29T01:42:48.381Z,33.70
2023-01-29T01:45:29.066Z,32.67
2023-01-29T01:48:02.936Z,32.30
2023-01-29T01:50:38.580Z,30.33
2023-01-29T01:53:10.227Z,29.70
2023-01-29T01:55:52.540Z,30.53
2023-01-29T01:58:26.918Z,29.97
2023-01-29T02:00:54.516Z,32.83
2023-01-29T02:03:42.409Z,32.53
2023-01-29T02:06:29.314Z,33.33
2023-01-29T02:09:19.744Z,31.60
2023-01-29T02:11:46.248Z,31.03
2023-01-29T02:14:12.821Z,32.43
2023-01-29T02:16:39.243Z,34.70
2023-01-29T02:19:15.373Z,33.47
2023-01-29T02:21:52.545Z,31.87
2023-01-29T02:24:40.343Z,31.70
2023-01-29T02:27:12.371Z,32.73
2023-01-29T02:29:53.025Z,32.40
2023-01-29T02:32:25.300Z,31.50
2023-01-29T02:35:26.006Z,31.40
2023-01-29T02:38:07.224Z,31.57
2023-01-29T02:40:49.973Z,33.93
2023-01-29T02:43:16.391Z,33.20
2023-01-29T02:46:02.453Z,32.60
2023-01-29T02:48:39.888Z,31.90
2023-01-29T02:51:13.817Z,33.90
2023-01-29T02:54:03.208Z,33.83
2023-01-29T02:56:44.275Z,34.43
2023-01-29T02:59:17.482Z,33.40
2023-01-29T03:01:56.678Z,33.60
2023-01-29T03:04:29.638Z,34.40
2023-01-29T03:07:01.374Z,33.80
2023-01-29T03:09:41.247Z,32.40
2023-01-29T03:12:29.149Z,33.40
2023-01-29T03:15:14.053Z,32.60
2023-01-29T03:17:55.732Z,32.07
2023-01-29T03:20:33.264Z,32.00
2023-01-29T03:23:11.803Z,30.93
2023-01-29T03:25:59.295Z,34.50
2023-01-29T03:28:46.846Z,32.20
2023-01-29T03:31:33.864Z,30.23
2023-01-29T03:34:54.489Z,32.30
2023-01-29T03:37:26.328Z,32.60
2023-01-29T03:39:52.861Z,31.67
2023-01-29T03:42:48.938Z,31.20
2023-01-29T03:45:52.471Z,32.87
2023-01-29T03:48:29.344Z,32.47
2023-01-29T03:51:17.697Z,31.10
2023-01-29T03:53:51.451Z,31.60
2023-01-29T03:56:46.787Z,32.67
2023-01-29T03:59:25.232Z,32.27
2023-01-29T04:01:56.972Z,32.20
2023-01-29T04:04:38.126Z,32.60
2023-01-29T04:07:12.000Z,32.23
2023-01-29T04:09:50.455Z,33.33
2023-01-29T04:12:23.367Z,33.07
2023-01-29T04:14:53.195Z,32.13
2023-01-29T04:17:25.695Z,32.70
2023-01-29T04:19:53.566Z,31.40
2023-01-29T04:22:24.370Z,31.10
2023-01-29T04:24:51.381Z,30.13
2023-01-29T04:27:26.265Z,30.90
2023-01-29T04:30:09.760Z,32.77
2023-01-29T04:32:57.388Z,31.60
2023-01-29T04:35:31.534Z,32.80
2023-01-29T04:38:00.922Z,31.93
2023-01-29T04:40:47.722Z,33.57
2023-01-29T04:43:25.277Z,32.33
2023-01-29T04:46:20.987Z,33.03
2023-01-29T04:49:05.978Z,32.07
2023-01-29T04:51:49.588Z,33.73
2023-01-29T04:54:22.575Z,33.70
2023-01-29T04:57:01.807Z,33.10
2023-01-29T04:59:37.140Z,34.40
2023-01-29T05:02:04.719Z,31.70
2023-01-29T05:04:34.325Z,33.70
2023-01-29T05:07:08.880Z,32.60
2023-01-29T05:09:38.687Z,33.00
2023-01-29T05:12:10.798Z,33.93
2023-01-29T05:14:39.616Z,33.77
2023-01-29T05:17:13.226Z,34.20
2023-01-29T05:19:39.739Z,34.10
2023-01-29T05:22:08.899Z,32.97
2023-01-29T05:24:35.985Z,34.00
2023-01-29T05:27:21.432Z,33.33
2023-01-29T05:29:48.568Z,35.00
2023-01-29T05:32:16.158Z,32.90
2023-01-29T05:34:42.912Z,33.43
2023-01-29T05:37:10.531Z,33.47
2023-01-29T05:39:36.936Z,34.77
2023-01-29T05:42:03.591Z,33.73
2023-01-29T05:44:30.093Z,31.77
2023-01-29T05:46:56.639Z,33.57
2023-01-29T05:49:23.193Z,34.87
2023-01-29T05:51:49.691Z,35.57
2023-01-29T05:54:16.119Z,35.83
2023-01-29T05:56:42.712Z,37.13
2023-01-29T05:59:09.205Z,37.30
2023-01-29T06:01:36.105Z,35.80
2023-01-29T06:04:02.673Z,36.07
2023-01-29T06:06:29.171Z,37.33
2023-01-29T06:08:56.377Z,35.90
2023-01-29T06:11:23.180Z,38.60
2023-01-29T06:13:49.723Z,35.40
2023-01-29T06:16:16.431Z,35.07
2023-01-29T06:18:43.080Z,37.30
2023-01-29T06:21:12.421Z,35.07
2023-01-29T06:23:39.510Z,36.63
2023-01-29T06:26:08.833Z,35.97
2023-01-29T06:28:35.428Z,33.33
2023-01-29T06:31:22.107Z,36.07
2023-01-29T06:33:49.973Z,37.27
2023-01-29T06:36:16.490Z,35.73
2023-01-29T06:38:42.923Z,34.80
2023-01-29T06:41:19.636Z,38.20
2023-01-29T06:43:47.709Z,38.13
2023-01-29T06:46:14.390Z,35.33
2023-01-29T06:48:41.944Z,37.60
2023-01-29T06:51:10.146Z,36.53
2023-01-29T06:53:38.301Z,34.40
2023-01-29T06:56:05.816Z,36.47
2023-01-29T06:58:32.351Z,34.67
2023-01-29T07:01:10.109Z,37.37
2023-01-29T07:03:37.018Z,35.53
2023-01-29T07:06:04.813Z,36.90
2023-01-29T07:08:31.396Z,37.90
2023-01-29T07:11:01.975Z,34.90
2023-01-29T07:13:28.650Z,34.93
2023-01-29T07:15:59.171Z,36.97
2023-01-29T07:18:26.152Z,37.67
2023-01-29T07:20:52.574Z,38.40
2023-01-29T07:23:19.102Z,38.60
2023-01-29T07:25:45.942Z,42.10
2023-01-29T07:28:12.480Z,38.57
2023-01-29T07:30:38.904Z,39.13
2023-01-29T07:33:08.172Z,38.17
2023-01-29T07:35:42.857Z,38.93
2023-01-29T07:38:11.008Z,37.47
2023-01-29T07:40:37.724Z,37.90
2023-01-29T07:43:06.710Z,39.63
2023-01-29T07:45:35.491Z,39.27
2023-01-29T07:48:04.928Z,37.80
2023-01-29T07:50:32.859Z,39.17
2023-01-29T07:52:59.337Z,38.03
2023-01-29T07:55:26.228Z,38.93
2023-01-29T07:58:10.889Z,39.83
2023-01-29T08:00:37.374Z,38.03
2023-01-29T08:03:09.591Z,37.10
2023-01-29T08:05:36.379Z,38.77
2023-01-29T08:08:07.810Z,39.33
2023-01-29T08:10:35.865Z,38.60
2023-01-29T08:13:03.672Z,38.80
2023-01-29T08:15:30.448Z,38.27
2023-01-29T08:20:43.505Z,37.73
2023-01-29T08:23:16.266Z,39.20
2023-01-29T08:25:42.713Z,36.60
2023-01-29T08:28:09.771Z,38.57
2023-01-29T08:30:36.278Z,36.40
2023-01-29T08:33:04.362Z,36.20
2023-01-29T08:35:31.326Z,35.23
2023-01-29T08:38:00.362Z,36.57
2023-01-29T08:40:31.639Z,36.07
2023-01-29T08:43:04.113Z,35.87
2023-01-29T08:45:34.889Z,35.83
2023-01-29T08:48:01.851Z,37.30
2023-01-29T08:50:30.522Z,37.00
2023-01-29T08:53:03.260Z,35.37
2023-01-29T08:55:30.111Z,38.07
2023-01-29T08:57:59.377Z,37.70
2023-01-29T09:00:25.994Z,36.47
2023-01-29T09:02:52.473Z,36.70
2023-01-29T09:05:19.393Z,36.03
2023-01-29T09:07:46.159Z,36.13
2023-01-29T09:10:13.389Z,35.27
2023-01-29T09:12:39.892Z,38.00
2023-01-29T09:15:06.821Z,35.40
2023-01-29T09:17:33.213Z,40.10
2023-01-29T09:19:59.717Z,35.10
2023-01-29T09:22:26.329Z,36.30
2023-01-29T09:24:52.867Z,34.43
2023-01-29T09:27:19.315Z,37.40
2023-01-29T09:29:45.757Z,37.27
2023-01-29T09:32:12.230Z,34.90
2023-01-29T09:34:38.706Z,36.70
2023-01-29T09:37:05.164Z,36.00
2023-01-29T09:39:31.650Z,34.53
2023-01-29T09:42:10.286Z,34.73
2023-01-29T09:45:01.670Z,35.20
2023-01-29T09:47:29.796Z,35.77
2023-01-29T09:50:22.895Z,36.53
2023-01-29T09:53:25.339Z,33.93
2023-01-29T09:55:59.925Z,34.67
2023-01-29T09:58:33.482Z,37.53
2023-01-29T10:01:24.263Z,36.10
2023-01-29T10:04:20.061Z,35.23
2023-01-29T10:07:03.768Z,34.63
2023-01-29T10:09:30.151Z,34.77
2023-01-29T10:12:11.774Z,35.90
2023-01-29T10:14:47.336Z,37.00
2023-01-29T10:17:41.712Z,38.17
2023-01-29T10:20:20.640Z,37.70
2023-01-29T10:23:11.454Z,36.53
2023-01-29T10:25:40.812Z,34.50
2023-01-29T10:28:26.343Z,35.97
2023-01-29T10:31:00.484Z,35.90
2023-01-29T10:33:49.527Z,35.20
2023-01-29T10:36:26.623Z,35.63
2023-01-29T10:38:53.152Z,36.13
2023-01-29T10:41:40.439Z,33.43
2023-01-29T10:44:46.025Z,36.40
2023-01-29T10:47:54.129Z,34.20
2023-01-29T10:50:40.373Z,35.20
2023-01-29T10:53:19.450Z,37.23
2023-01-29T10:56:22.351Z,36.77
2023-01-29T10:58:53.591Z,36.10
2023-01-29T11:01:20.029Z,34.40
2023-01-29T11:03:57.318Z,35.70
2023-01-29T11:06:28.114Z,35.47
2023-01-29T11:09:05.999Z,36.50
2023-01-29T11:11:48.581Z,35.40
2023-01-29T11:14:22.869Z,37.30
2023-01-29T11:16:49.657Z,36.80
2023-01-29T11:19:16.934Z,37.23
2023-01-29T11:22:01.706Z,35.67
2023-01-29T11:24:28.576Z,37.40
2023-01-29T11:26:58.653Z,36.73
2023-01-29T11:29:47.950Z,36.33
2023-01-29T11:32:34.932Z,37.57
2023-01-29T11:35:15.067Z,40.17
2023-01-29T11:37:44.013Z,38.80
2023-01-29T11:40:19.656Z,36.90
2023-01-29T11:42:47.183Z,39.10
2023-01-29T11:45:22.787Z,35.07
2023-01-29T11:47:59.587Z,39.10
2023-01-29T11:50:29.140Z,37.60
2023-01-29T11:52:55.812Z,37.83
2023-01-29T11:55:24.609Z,35.67
2023-01-29T11:58:14.874Z,36.83
2023-01-29T12:00:45.708Z,37.77
2023-01-29T12:03:16.212Z,37.30
2023-01-29T12:05:56.514Z,36.63
2023-01-29T12:08:24.759Z,37.80
2023-01-29T12:10:51.428Z,37.77
2023-01-29T12:13:28.322Z,42.27
2023-01-29T12:16:20.181Z,40.30
2023-01-29T12:18:53.330Z,38.83
2023-01-29T12:21:43.296Z,36.27
2023-01-29T12:24:34.096Z,36.93
2023-01-29T12:27:27.759Z,39.03
2023-01-29T12:30:16.743Z,35.27
2023-01-29T12:32:55.491Z,35.67
2023-01-29T12:35:27.693Z,37.97
2023-01-29T12:37:54.045Z,35.67
2023-01-29T12:40:24.867Z,37.60
2023-01-29T12:42:57.426Z,38.20
2023-01-29T12:45:26.976Z,37.30
2023-01-29T12:48:11.333Z,35.97
2023-01-29T12:50:38.516Z,36.37
2023-01-29T12:53:30.288Z,36.73
2023-01-29T12:56:09.649Z,37.10
2023-01-29T12:58:57.327Z,36.30
2023-01-29T13:01:28.777Z,36.30
2023-01-29T13:04:11.685Z,36.10
2023-01-29T13:06:50.689Z,37.43
2023-01-29T13:09:25.355Z,37.20
2023-01-29T13:11:58.468Z,35.87
2023-01-29T13:14:40.837Z,39.20
2023-01-29T13:17:14.457Z,38.97
2023-01-29T13:19:45.497Z,37.53
2023-01-29T13:22:21.980Z,37.17
2023-01-29T13:24:58.713Z,35.73
2023-01-29T13:27:33.272Z,37.27
2023-01-29T13:30:00.395Z,38.60
2023-01-29T13:32:29.428Z,35.50
2023-01-29T13:34:59.824Z,37.33
2023-01-29T13:37:35.303Z,37.87
2023-01-29T13:40:05.316Z,36.23
2023-01-29T13:42:47.482Z,39.20
2023-01-29T13:45:32.925Z,36.13
2023-01-29T13:48:12.296Z,35.27
2023-01-29T13:50:42.215Z,34.90
2023-01-29T13:53:21.917Z,35.53
2023-01-29T13:55:48.767Z,36.83
2023-01-29T13:58:44.013Z,36.77
2023-01-29T14:01:10.463Z,36.00
2023-01-29T14:04:03.753Z,36.37
2023-01-29T14:06:41.384Z,35.73
2023-01-29T14:09:38.819Z,40.80
2023-01-29T14:12:25.285Z,37.07
2023-01-29T14:14:54.789Z,37.10
2023-01-29T14:17:21.421Z,36.60
2023-01-29T14:20:03.657Z,36.20
2023-01-29T14:22:32.631Z,36.00
2023-01-29T14:25:03.965Z,37.17
2023-01-29T14:27:32.056Z,35.80
2023-01-29T14:30:06.536Z,36.10
2023-01-29T14:32:33.683Z,36.13
2023-01-29T14:35:10.197Z,35.60
2023-01-29T14:37:40.329Z,35.90
2023-01-29T14:40:12.555Z,35.17
2023-01-29T14:42:46.704Z,38.57
2023-01-29T14:45:34.830Z,36.93
2023-01-29T14:48:10.419Z,36.23
2023-01-29T14:50:36.825Z,35.70
2023-01-29T14:53:31.746Z,36.43
2023-01-29T14:56:24.854Z,33.80
2023-01-29T14:58:56.224Z,36.20
2023-01-29T15:01:37.017Z,35.50
2023-01-29T15:04:05.299Z,34.70
2023-01-29T15:06:48.282Z,35.33
2023-01-29T15:09:22.069Z,34.50
2023-01-29T15:12:03.255Z,32.60
2023-01-29T15:14:37.889Z,34.03
2023-01-29T15:17:21.805Z,36.00
2023-01-29T15:19:49.090Z,36.07
2023-01-29T15:22:21.476Z,32.87
2023-01-29T15:25:03.171Z,33.80
2023-01-29T15:27:30.111Z,33.80
2023-01-29T15:29:59.501Z,33.20
2023-01-29T15:32:40.270Z,35.90
2023-01-29T15:35:33.161Z,34.17
2023-01-29T15:38:18.171Z,32.70
2023-01-29T15:41:16.129Z,32.97
2023-01-29T15:43:45.896Z,33.33
2023-01-29T15:46:22.630Z,30.67
2023-01-29T15:48:50.224Z,33.70
2023-01-29T15:51:20.418Z,32.90
2023-01-29T15:53:56.236Z,32.30
2023-01-29T15:56:28.136Z,29.57
2023-01-29T15:58:57.663Z,32.80
2023-01-29T16:01:27.260Z,31.90
2023-01-29T16:03:54.598Z,30.23
2023-01-29T16:06:22.902Z,32.40
2023-01-29T16:08:54.411Z,30.47
2023-01-29T16:11:21.617Z,30.10
2023-01-29T16:13:49.964Z,30.10
2023-01-29T16:16:16.439Z,29.97
2023-01-29T16:18:58.892Z,29.20
2023-01-29T16:21:38.554Z,28.73
2023-01-29T16:24:09.382Z,28.23
2023-01-29T16:26:44.780Z,28.13
2023-01-29T16:29:14.298Z,29.27
2023-01-29T16:31:42.977Z,24.80
2023-01-29T16:34:16.983Z,27.47
2023-01-29T16:36:48.256Z,24.60
2023-01-29T16:39:24.858Z,23.80
2023-01-29T16:42:10.639Z,24.17
2023-01-29T16:44:40.066Z,23.10
2023-01-29T16:47:15.861Z,23.43
2023-01-29T16:49:45.547Z,21.70
2023-01-29T16:52:23.243Z,22.23
2023-01-29T16:54:50.164Z,19.20
2023-01-29T16:57:22.985Z,20.17
2023-01-29T16:59:52.553Z,21.50
2023-01-29T17:02:27.427Z,18.37
2023-01-29T17:04:58.457Z,20.63
2023-01-29T17:07:25.730Z,20.77
2023-01-29T17:09:59.861Z,20.97
2023-01-29T17:12:28.047Z,21.20
2023-01-29T17:15:00.202Z,20.40
2023-01-29T17:17:36.096Z,19.90
2023-01-29T17:20:16.558Z,21.20
2023-01-29T17:22:44.609Z,20.37
2023-01-29T17:25:14.878Z,20.67
2023-01-29T17:27:45.177Z,22.40
2023-01-29T17:30:16.226Z,23.20
2023-01-29T17:32:44.155Z,21.53
2023-01-29T17:35:17.014Z,21.37
2023-01-29T17:37:44.402Z,21.73
2023-01-29T17:40:28.385Z,22.73
2023-01-29T17:42:54.814Z,20.57
2023-01-29T17:45:21.380Z,21.80
2023-01-29T17:47:47.831Z,20.67
2023-01-29T17:50:27.601Z,22.27
2023-01-29T17:52:54.415Z,21.20
2023-01-29T17:55:20.904Z,20.73
2023-01-29T17:57:48.270Z,22.43
2023-01-29T18:00:19.485Z,23.23
2023-01-29T18:02:46.101Z,27.37
2023-01-29T18:05:15.974Z,22.10
2023-01-29T18:07:45.173Z,23.47
2023-01-29T18:10:21.477Z,22.53
2023-01-29T18:12:48.037Z,22.77
2023-01-29T18:15:15.243Z,22.07
2023-01-29T18:17:42.543Z,22.50
2023-01-29T18:20:25.579Z,22.97
2023-01-29T18:22:52.651Z,21.57
2023-01-29T18:25:19.832Z,21.10
2023-01-29T18:27:46.585Z,21.30
2023-01-29T18:30:13.904Z,20.23
2023-01-29T18:32:40.715Z,21.20
2023-01-29T18:35:08.281Z,20.53
2023-01-29T18:37:35.251Z,20.00
2023-01-29T18:40:01.821Z,20.03
2023-01-29T18:42:31.606Z,20.53
2023-01-29T18:44:58.011Z,20.20
2023-01-29T18:47:25.716Z,20.50
2023-01-29T18:49:52.272Z,20.73
2023-01-29T18:52:18.834Z,18.87
2023-01-29T18:54:45.341Z,19.97
2023-01-29T18:57:14.271Z,21.23
2023-01-29T18:59:58.275Z,20.97
2023-01-29T19:02:24.792Z,20.80
2023-01-29T19:04:51.724Z,20.17
2023-01-29T19:07:18.185Z,28.10
2023-01-29T19:09:46.468Z,21.70
2023-01-29T19:12:13.097Z,18.90
2023-01-29T19:14:39.793Z,18.93
2023-01-29T19:17:06.409Z,19.30
2023-01-29T19:19:36.277Z,20.20
2023-01-29T19:22:02.873Z,20.77
2023-01-29T19:24:29.656Z,19.40
2023-01-29T19:26:56.159Z,19.30
2023-01-29T19:29:22.739Z,20.40
2023-01-29T19:31:49.247Z,19.80
2023-01-29T19:34:15.721Z,20.00
2023-01-29T19:36:42.889Z,18.30
2023-01-29T19:39:10.832Z,18.83
2023-01-29T19:41:37.294Z,19.07
2023-01-29T19:44:03.895Z,21.40
2023-01-29T19:46:30.302Z,27.10
2023-01-29T19:48:58.758Z,23.13
2023-01-29T19:51:28.201Z,20.40
2023-01-29T19:53:55.849Z,18.33
2023-01-29T19:56:22.324Z,19.40
2023-01-29T19:58:48.797Z,19.10
2023-01-29T20:01:20.654Z,17.67
2023-01-29T20:03:49.098Z,18.90
2023-01-29T20:06:18.384Z,20.80
2023-01-29T20:08:46.817Z,18.60
2023-01-29T20:11:15.157Z,20.23
2023-01-29T20:13:41.624Z,23.63
2023-01-29T20:16:08.246Z,24.40
2023-01-29T20:18:35.276Z,20.47
2023-01-29T20:21:10.522Z,20.00
2023-01-29T20:23:38.716Z,21.73
2023-01-29T20:26:11.919Z,21.20
2023-01-29T20:28:38.882Z,20.77
2023-01-29T20:31:07.004Z,21.40
2023-01-29T20:33:34.649Z,21.77
2023-01-29T20:36:04.656Z,21.57
2023-01-29T20:38:31.901Z,20.67
2023-01-29T20:41:08.458Z,20.70
2023-01-29T20:43:35.541Z,20.93
2023-01-29T20:46:02.470Z,22.73
2023-01-29T20:48:29.919Z,21.23
2023-01-29T20:50:57.010Z,21.30
2023-01-29T20:53:23.531Z,21.80
2023-01-29T20:55:50.092Z,23.80
2023-01-29T20:58:16.854Z,22.57
2023-01-29T21:00:44.465Z,21.00
2023-01-29T21:03:10.971Z,21.50
2023-01-29T21:05:37.425Z,22.30
2023-01-29T21:08:03.914Z,21.40
2023-01-29T21:10:30.395Z,20.50
2023-01-29T21:12:56.832Z,21.30
2023-01-29T21:15:24.651Z,21.47
2023-01-29T21:17:52.376Z,20.77
2023-01-29T21:20:19.254Z,20.83
2023-01-29T21:22:45.878Z,21.30
2023-01-29T21:25:12.349Z,20.40
2023-01-29T21:27:38.872Z,19.87
2023-01-29T21:30:05.932Z,19.80
2023-01-29T21:32:32.595Z,20.07
2023-01-29T21:34:59.015Z,20.17
2023-01-29T21:37:25.640Z,21.60
2023-01-29T21:39:52.188Z,21.77
2023-01-29T21:42:37.221Z,20.10
2023-01-29T21:45:04.281Z,21.23
2023-01-29T21:47:30.735Z,20.90
2023-01-29T21:49:57.214Z,20.30
2023-01-29T21:52:23.683Z,21.53
2023-01-29T21:54:50.212Z,20.50
2023-01-29T21:57:17.151Z,22.70
2023-01-29T21:59:43.792Z,21.27
2023-01-29T22:02:15.117Z,21.10
2023-01-29T22:04:42.417Z,22.37
2023-01-29T22:07:12.453Z,20.07
2023-01-29T22:09:39.129Z,22.43
2023-01-29T22:12:07.455Z,19.33
2023-01-29T22:14:34.363Z,21.30
2023-01-29T22:17:01.052Z,22.63
2023-01-29T22:19:29.233Z,19.33
2023-01-29T22:21:55.658Z,19.97
2023-01-29T22:24:22.392Z,20.47
2023-01-29T22:26:49.614Z,20.43
2023-01-29T22:29:17.047Z,19.57
2023-01-29T22:31:44.292Z,21.70
2023-01-29T22:34:12.267Z,23.27
2023-01-29T22:36:38.977Z,22.50
2023-01-29T22:39:07.586Z,19.00
2023-01-29T22:41:34.853Z,19.93
2023-01-29T22:44:01.576Z,19.33
2023-01-29T22:46:28.416Z,20.40
2023-01-29T22:48:54.859Z,20.47
2023-01-29T22:51:21.360Z,20.43
2023-01-29T22:53:53.459Z,19.70
2023-01-29T22:56:25.273Z,21.73
2023-01-29T22:58:53.661Z,20.67
2023-01-29T23:01:22.703Z,21.40
2023-01-29T23:03:49.191Z,21.27
2023-01-29T23:06:17.046Z,21.53
2023-01-29T23:08:43.703Z,21.80
2023-01-29T23:11:14.788Z,22.47
2023-01-29T23:13:54.679Z,21.87
2023-01-29T23:16:26.840Z,21.77
2023-01-29T23:18:55.690Z,21.70
2023-01-29T23:21:25.032Z,21.40
2023-01-29T23:24:01.467Z,21.83
2023-01-29T23:26:47.228Z,22.33
2023-01-29T23:29:14.217Z,22.43
2023-01-29T23:31:40.784Z,22.10
2023-01-29T23:34:07.358Z,21.60
2023-01-29T23:36:33.881Z,23.00
2023-01-29T23:39:00.363Z,22.70
2023-01-29T23:41:26.828Z,21.40
2023-01-29T23:43:53.300Z,21.87
2023-01-29T23:46:19.737Z,21.83
2023-01-29T23:48:46.180Z,21.50
2023-01-29T23:51:12.682Z,22.60
2023-01-29T23:53:39.150Z,22.90
2023-01-29T23:56:06.172Z,20.80
2023-01-29T23:58:33.453Z,21.47
